createdAt,value
2016-11-19T00:00:46.413Z,0
2016-11-19T00:01:46.371Z,0
2016-11-19T00:02:46.426Z,0
2016-11-19T00:03:46.392Z,0
2016-11-19T00:04:46.369Z,0
2016-11-19T00:05:46.385Z,0
2016-11-19T00:06:46.418Z,0
2016-11-19T00:07:46.391Z,0
2016-11-19T00:08:46.405Z,0
2016-11-19T00:09:46.404Z,0
2016-11-19T00:10:46.404Z,0
2016-11-19T00:11:46.589Z,0
2016-11-19T00:12:46.561Z,0
2016-11-19T00:13:46.645Z,0
2016-11-19T00:14:46.443Z,0
2016-11-19T00:15:46.412Z,0
2016-11-19T00:16:46.469Z,0
2016-11-19T00:17:46.427Z,0
2016-11-19T00:18:46.618Z,0
2016-11-19T00:19:46.435Z,0
2016-11-19T00:20:46.558Z,0
2016-11-19T00:21:46.529Z,0
2016-11-19T00:22:46.518Z,0
2016-11-19T00:23:46.422Z,0
2016-11-19T00:24:46.794Z,0
2016-11-19T00:25:46.452Z,0
2016-11-19T00:26:46.460Z,0
2016-11-19T00:27:46.408Z,0
2016-11-19T00:28:46.717Z,0
2016-11-19T00:29:46.448Z,0
2016-11-19T00:30:46.645Z,0
2016-11-19T00:31:46.427Z,0
2016-11-19T00:32:46.545Z,0
2016-11-19T00:33:46.466Z,0
2016-11-19T00:34:46.478Z,0
2016-11-19T00:35:46.567Z,0
2016-11-19T00:36:46.437Z,0
2016-11-19T00:37:46.594Z,0
2016-11-19T00:38:46.469Z,0
2016-11-19T00:39:46.587Z,0
2016-11-19T00:40:46.445Z,0
2016-11-19T00:41:46.479Z,0
2016-11-19T00:42:46.413Z,0
2016-11-19T00:43:46.405Z,0
2016-11-19T00:44:46.391Z,0
2016-11-19T00:45:46.421Z,0
2016-11-19T00:46:46.426Z,0
2016-11-19T00:47:46.433Z,0
2016-11-19T00:48:46.427Z,0
2016-11-19T00:49:46.610Z,0
2016-11-19T00:50:46.416Z,0
2016-11-19T00:51:46.493Z,0
2016-11-19T00:52:46.423Z,0
2016-11-19T00:53:46.430Z,0
2016-11-19T00:54:46.447Z,0
2016-11-19T00:55:46.427Z,0
2016-11-19T00:56:46.439Z,0
2016-11-19T00:57:46.512Z,0
2016-11-19T00:58:46.400Z,0
2016-11-19T00:59:46.531Z,0
2016-11-19T01:00:46.459Z,0
2016-11-19T01:01:46.470Z,0
2016-11-19T01:02:46.477Z,0
2016-11-19T01:03:46.494Z,0
2016-11-19T01:04:46.487Z,0
2016-11-19T01:05:46.481Z,0
2016-11-19T01:06:46.534Z,0
2016-11-19T01:07:46.493Z,0
2016-11-19T01:08:46.445Z,0
2016-11-19T01:09:46.466Z,0
2016-11-19T01:10:46.411Z,0
2016-11-19T01:11:46.536Z,0
2016-11-19T01:12:46.431Z,0
2016-11-19T01:13:46.427Z,0
2016-11-19T01:14:46.420Z,0
2016-11-19T01:15:46.504Z,0
2016-11-19T01:16:46.465Z,0
2016-11-19T01:17:46.448Z,0
2016-11-19T01:18:46.476Z,0
2016-11-19T01:19:46.536Z,0
2016-11-19T01:20:46.501Z,0
2016-11-19T01:21:46.442Z,0
2016-11-19T01:22:46.433Z,0
2016-11-19T01:23:46.467Z,0
2016-11-19T01:24:46.442Z,0
2016-11-19T01:25:46.431Z,0
2016-11-19T01:26:46.458Z,0
2016-11-19T01:27:46.479Z,0
2016-11-19T01:28:46.462Z,0
2016-11-19T01:29:46.536Z,0
2016-11-19T01:30:46.483Z,0
2016-11-19T01:31:46.547Z,0
2016-11-19T01:32:46.468Z,0
2016-11-19T01:33:46.504Z,0
2016-11-19T01:34:46.465Z,0
2016-11-19T01:35:46.459Z,0
2016-11-19T01:36:46.470Z,0
2016-11-19T01:37:46.451Z,0
2016-11-19T01:38:46.547Z,0
2016-11-19T01:39:46.465Z,0
2016-11-19T01:40:46.476Z,0
2016-11-19T01:41:46.477Z,0
2016-11-19T01:42:46.469Z,0
2016-11-19T01:43:46.443Z,0
2016-11-19T01:44:46.453Z,0
2016-11-19T01:45:46.463Z,0
2016-11-19T01:46:46.469Z,0
2016-11-19T01:47:46.520Z,0
2016-11-19T01:48:46.478Z,0
2016-11-19T01:49:46.475Z,0
2016-11-19T01:50:46.508Z,0
2016-11-19T01:51:46.544Z,0
2016-11-19T01:52:46.550Z,0
2016-11-19T01:53:46.457Z,0
2016-11-19T01:54:46.517Z,0
2016-11-19T01:55:46.536Z,0
2016-11-19T01:56:46.552Z,0
2016-11-19T01:57:46.489Z,0
2016-11-19T01:58:46.579Z,0
2016-11-19T01:59:46.463Z,0
2016-11-19T02:00:46.526Z,0
2016-11-19T02:01:46.569Z,0
2016-11-19T02:02:46.478Z,0
2016-11-19T02:03:46.478Z,0
2016-11-19T02:04:46.459Z,0
2016-11-19T02:05:46.556Z,0
2016-11-19T02:06:46.470Z,0
2016-11-19T02:07:46.497Z,0
2016-11-19T02:08:46.458Z,0
2016-11-19T02:09:46.480Z,0
2016-11-19T02:10:46.570Z,0
2016-11-19T02:11:46.500Z,0
2016-11-19T02:12:46.498Z,0
2016-11-19T02:13:46.485Z,0
2016-11-19T02:14:46.564Z,0
2016-11-19T02:15:46.480Z,0
2016-11-19T02:16:46.466Z,0
2016-11-19T02:17:46.479Z,0
2016-11-19T02:18:46.487Z,0
2016-11-19T02:19:46.477Z,0
2016-11-19T02:20:46.468Z,0
2016-11-19T02:21:46.516Z,0
2016-11-19T02:22:46.458Z,0
2016-11-19T02:23:46.469Z,0
2016-11-19T02:24:46.465Z,0
2016-11-19T02:25:46.472Z,0
2016-11-19T02:26:46.494Z,0
2016-11-19T02:27:46.492Z,0
2016-11-19T02:28:46.507Z,0
2016-11-19T02:29:46.502Z,0
2016-11-19T02:30:46.491Z,0
2016-11-19T02:31:46.760Z,0
2016-11-19T02:32:46.462Z,0
2016-11-19T02:33:46.559Z,0
2016-11-19T02:34:46.486Z,0
2016-11-19T02:35:46.534Z,0
2016-11-19T02:36:46.644Z,0
2016-11-19T02:37:46.514Z,0
2016-11-19T02:38:46.476Z,0
2016-11-19T02:39:46.924Z,0
2016-11-19T02:40:46.549Z,0
2016-11-19T02:41:46.491Z,0
2016-11-19T02:42:46.670Z,0
2016-11-19T02:43:46.480Z,0
2016-11-19T02:44:46.491Z,0
2016-11-19T02:45:46.501Z,0
2016-11-19T02:46:46.500Z,0
2016-11-19T02:47:46.747Z,0
2016-11-19T02:48:46.719Z,0
2016-11-19T02:49:46.497Z,0
2016-11-19T02:50:46.473Z,0
2016-11-19T02:51:46.511Z,0
2016-11-19T02:52:46.486Z,0
2016-11-19T02:53:46.520Z,0
2016-11-19T02:54:46.604Z,0
2016-11-19T02:55:46.524Z,0
2016-11-19T02:56:46.540Z,0
2016-11-19T02:57:46.510Z,0
2016-11-19T02:58:46.484Z,0
2016-11-19T02:59:46.628Z,0
2016-11-19T03:00:46.488Z,0
2016-11-19T03:01:46.519Z,0
2016-11-19T03:02:46.485Z,0
2016-11-19T03:03:46.507Z,0
2016-11-19T03:04:46.501Z,0
2016-11-19T03:05:46.777Z,0
2016-11-19T03:06:46.618Z,0
2016-11-19T03:07:46.523Z,0
2016-11-19T03:08:46.528Z,0
2016-11-19T03:09:46.537Z,0
2016-11-19T03:10:46.508Z,0
2016-11-19T03:11:46.571Z,0
2016-11-19T03:12:46.568Z,0
2016-11-19T03:13:46.547Z,0
2016-11-19T03:14:46.541Z,0
2016-11-19T03:15:46.541Z,0
2016-11-19T03:16:46.786Z,0
2016-11-19T03:17:46.555Z,0
2016-11-19T03:18:46.552Z,0
2016-11-19T03:19:46.555Z,0
2016-11-19T03:20:46.552Z,0
2016-11-19T03:21:46.604Z,0
2016-11-19T03:22:46.583Z,0
2016-11-19T03:23:46.749Z,0
2016-11-19T03:24:46.549Z,0
2016-11-19T03:25:46.546Z,0
2016-11-19T03:26:46.789Z,0
2016-11-19T03:27:46.575Z,0
2016-11-19T03:28:46.550Z,0
2016-11-19T03:29:46.587Z,0
2016-11-19T03:30:46.559Z,0
2016-11-19T03:31:46.578Z,0
2016-11-19T03:32:46.532Z,0
2016-11-19T03:33:46.531Z,0
2016-11-19T03:34:46.562Z,0
2016-11-19T03:35:46.552Z,0
2016-11-19T03:36:46.553Z,0
2016-11-19T03:37:46.549Z,0
2016-11-19T03:38:46.565Z,0
2016-11-19T03:39:46.585Z,0
2016-11-19T03:40:46.552Z,0
2016-11-19T03:41:46.562Z,0
2016-11-19T03:42:46.588Z,0
2016-11-19T03:43:46.757Z,0
2016-11-19T03:44:46.758Z,0
2016-11-19T03:45:46.539Z,0
2016-11-19T03:46:46.565Z,0
2016-11-19T03:47:46.659Z,0
2016-11-19T03:48:46.770Z,0
2016-11-19T03:49:46.546Z,0
2016-11-19T03:50:46.554Z,0
2016-11-19T03:51:46.693Z,0
2016-11-19T03:52:46.565Z,0
2016-11-19T03:53:46.555Z,0
2016-11-19T03:54:46.540Z,0
2016-11-19T03:55:46.536Z,0
2016-11-19T03:56:46.831Z,0
2016-11-19T03:57:46.578Z,0
2016-11-19T03:58:46.847Z,0
2016-11-19T03:59:46.783Z,0
2016-11-19T04:00:46.721Z,0
2016-11-19T04:01:46.647Z,0
2016-11-19T04:02:46.540Z,0
2016-11-19T04:03:46.739Z,0
2016-11-19T04:04:46.642Z,0
2016-11-19T04:05:47.168Z,0
2016-11-19T04:06:46.548Z,0
2016-11-19T04:07:47.420Z,0
2016-11-19T04:08:47.186Z,0
2016-11-19T04:09:46.556Z,0
2016-11-19T04:10:46.591Z,0
2016-11-19T04:11:46.704Z,0
2016-11-19T04:12:46.608Z,0
2016-11-19T04:13:46.645Z,0
2016-11-19T04:14:46.570Z,0
2016-11-19T04:15:46.564Z,0
2016-11-19T04:16:46.598Z,0
2016-11-19T04:17:46.734Z,0
2016-11-19T04:18:46.652Z,0
2016-11-19T04:19:46.605Z,0
2016-11-19T04:20:46.650Z,0
2016-11-19T04:21:46.579Z,0
2016-11-19T04:22:46.626Z,0
2016-11-19T04:23:46.694Z,0
2016-11-19T04:24:46.596Z,0
2016-11-19T04:25:46.707Z,0
2016-11-19T04:26:46.636Z,0
2016-11-19T04:27:46.627Z,0
2016-11-19T04:28:47.527Z,0
2016-11-19T04:29:46.598Z,0
2016-11-19T04:30:46.585Z,0
2016-11-19T04:31:46.617Z,0
2016-11-19T04:32:46.634Z,0
2016-11-19T04:33:46.653Z,0
2016-11-19T04:34:46.660Z,0
2016-11-19T04:35:46.595Z,0
2016-11-19T04:36:46.706Z,0
2016-11-19T04:37:46.650Z,0
2016-11-19T04:38:46.628Z,0
2016-11-19T04:39:46.579Z,0
2016-11-19T04:40:46.612Z,0
2016-11-19T04:41:46.637Z,0
2016-11-19T04:42:46.625Z,0
2016-11-19T04:43:46.587Z,0
2016-11-19T04:44:46.617Z,0
2016-11-19T04:45:46.577Z,0
2016-11-19T04:46:46.577Z,0
2016-11-19T04:47:46.928Z,0
2016-11-19T04:48:46.603Z,0
2016-11-19T04:49:46.605Z,0
2016-11-19T04:50:46.579Z,0
2016-11-19T04:51:46.611Z,0
2016-11-19T04:52:46.624Z,0
2016-11-19T04:53:46.597Z,0
2016-11-19T04:54:46.675Z,0
2016-11-19T04:55:46.615Z,0
2016-11-19T04:56:46.611Z,0
2016-11-19T04:57:46.640Z,0
2016-11-19T04:58:46.578Z,0
2016-11-19T04:59:46.570Z,0
2016-11-19T05:00:46.640Z,0
2016-11-19T05:01:46.593Z,0
2016-11-19T05:02:46.753Z,0
2016-11-19T05:03:46.570Z,0
2016-11-19T05:04:46.615Z,0
2016-11-19T05:05:46.626Z,0
2016-11-19T05:06:46.574Z,0
2016-11-19T05:07:46.667Z,0
2016-11-19T05:08:46.612Z,0
2016-11-19T05:09:46.651Z,0
2016-11-19T05:10:46.602Z,0
2016-11-19T05:11:46.616Z,0
2016-11-19T05:12:46.654Z,0
2016-11-19T05:13:46.641Z,0
2016-11-19T05:14:46.587Z,0
2016-11-19T05:15:46.592Z,0
2016-11-19T05:16:46.595Z,0
2016-11-19T05:17:47.251Z,0
2016-11-19T05:18:46.635Z,0
2016-11-19T05:19:46.609Z,0
2016-11-19T05:20:46.632Z,0
2016-11-19T05:21:46.640Z,0
2016-11-19T05:22:46.646Z,0
2016-11-19T05:23:46.650Z,0
2016-11-19T05:24:46.643Z,0
2016-11-19T05:25:46.648Z,0
2016-11-19T05:26:46.628Z,0
2016-11-19T05:27:46.628Z,0
2016-11-19T05:28:46.632Z,0
2016-11-19T05:29:46.676Z,0
2016-11-19T05:30:46.627Z,0
2016-11-19T05:31:46.622Z,0
2016-11-19T05:32:46.676Z,0
2016-11-19T05:33:46.683Z,0
2016-11-19T05:34:46.667Z,0
2016-11-19T05:35:46.653Z,0
2016-11-19T05:36:46.653Z,0
2016-11-19T05:37:46.644Z,0
2016-11-19T05:38:46.708Z,0
2016-11-19T05:39:46.656Z,0
2016-11-19T05:40:46.650Z,0
2016-11-19T05:41:46.656Z,0
2016-11-19T05:42:46.676Z,0
2016-11-19T05:43:46.689Z,0
2016-11-19T05:44:46.633Z,0
2016-11-19T05:45:46.624Z,0
2016-11-19T05:46:46.660Z,0
2016-11-19T05:47:46.642Z,0
2016-11-19T05:48:46.641Z,0
2016-11-19T05:49:46.676Z,0
2016-11-19T05:50:46.660Z,0
2016-11-19T05:51:46.663Z,0
2016-11-19T05:52:46.659Z,0
2016-11-19T05:53:46.657Z,0
2016-11-19T05:54:46.654Z,0
2016-11-19T05:55:46.656Z,0
2016-11-19T05:56:46.659Z,0
2016-11-19T05:57:46.657Z,0
2016-11-19T05:58:46.649Z,0
2016-11-19T05:59:46.643Z,0
2016-11-19T06:00:46.598Z,0
2016-11-19T06:01:46.640Z,0
2016-11-19T06:02:46.625Z,0
2016-11-19T06:03:46.618Z,0
2016-11-19T06:04:46.681Z,0
2016-11-19T06:05:46.640Z,0
2016-11-19T06:06:46.633Z,0
2016-11-19T06:07:46.636Z,0
2016-11-19T06:08:46.644Z,0
2016-11-19T06:09:46.652Z,0
2016-11-19T06:10:46.656Z,0
2016-11-19T06:11:46.659Z,0
2016-11-19T06:12:46.661Z,0
2016-11-19T06:13:46.808Z,0
2016-11-19T06:14:46.811Z,0
2016-11-19T06:15:46.813Z,0
2016-11-19T06:16:46.755Z,0
2016-11-19T06:17:46.748Z,0
2016-11-19T06:18:46.763Z,0
2016-11-19T06:19:46.779Z,0
2016-11-19T06:20:47.334Z,0
2016-11-19T06:21:46.856Z,0
2016-11-19T06:22:47.375Z,0
2016-11-19T06:23:46.728Z,4
2016-11-19T06:24:46.731Z,4
2016-11-19T06:25:47.402Z,4
2016-11-19T06:26:46.801Z,4
2016-11-19T06:27:46.767Z,4
2016-11-19T06:28:46.760Z,4
2016-11-19T06:29:46.737Z,4
2016-11-19T06:30:46.733Z,8
2016-11-19T06:31:46.789Z,4
2016-11-19T06:32:47.386Z,8
2016-11-19T06:33:46.720Z,12
2016-11-19T06:34:46.816Z,16
2016-11-19T06:35:46.748Z,16
2016-11-19T06:36:46.678Z,16
2016-11-19T06:37:46.829Z,16
2016-11-19T06:38:46.689Z,20
2016-11-19T06:39:46.683Z,28
2016-11-19T06:40:46.687Z,28
2016-11-19T06:41:46.726Z,32
2016-11-19T06:42:46.658Z,36
2016-11-19T06:43:46.682Z,40
2016-11-19T06:44:46.677Z,48
2016-11-19T06:45:46.642Z,52
2016-11-19T06:46:46.672Z,56
2016-11-19T06:47:46.700Z,72
2016-11-19T06:48:46.757Z,80
2016-11-19T06:49:47.244Z,88
2016-11-19T06:50:46.751Z,100
2016-11-19T06:51:46.712Z,100
2016-11-19T06:52:46.703Z,100
2016-11-19T06:53:46.741Z,120
2016-11-19T06:54:46.744Z,132
2016-11-19T06:55:46.750Z,148
2016-11-19T06:56:46.712Z,168
2016-11-19T06:57:46.705Z,168
2016-11-19T06:58:46.681Z,172
2016-11-19T06:59:46.686Z,172
2016-11-19T07:00:46.683Z,180
2016-11-19T07:01:46.728Z,232
2016-11-19T07:02:46.721Z,240
2016-11-19T07:03:46.689Z,252
2016-11-19T07:04:46.715Z,296
2016-11-19T07:05:46.745Z,324
2016-11-19T07:06:46.716Z,308
2016-11-19T07:07:46.723Z,336
2016-11-19T07:08:46.676Z,304
2016-11-19T07:09:46.754Z,348
2016-11-19T07:10:46.748Z,464
2016-11-19T07:11:46.724Z,468
2016-11-19T07:12:46.740Z,424
2016-11-19T07:13:46.743Z,460
2016-11-19T07:14:47.285Z,544
2016-11-19T07:15:46.791Z,548
2016-11-19T07:16:46.782Z,636
2016-11-19T07:17:46.732Z,620
2016-11-19T07:18:46.712Z,716
2016-11-19T07:19:46.714Z,724
2016-11-19T07:20:46.742Z,728
2016-11-19T07:21:46.716Z,692
2016-11-19T07:22:46.715Z,580
2016-11-19T07:23:46.738Z,628
2016-11-19T07:24:46.752Z,704
2016-11-19T07:25:46.782Z,716
2016-11-19T07:26:46.793Z,800
2016-11-19T07:27:46.711Z,836
2016-11-19T07:28:46.738Z,916
2016-11-19T07:29:46.722Z,960
2016-11-19T07:30:46.678Z,1012
2016-11-19T07:31:46.699Z,1072
2016-11-19T07:32:46.693Z,1072
2016-11-19T07:33:46.714Z,1104
2016-11-19T07:34:46.697Z,1096
2016-11-19T07:35:46.733Z,1116
2016-11-19T07:36:46.742Z,1156
2016-11-19T07:37:46.719Z,1244
2016-11-19T07:38:46.764Z,1220
2016-11-19T07:39:46.707Z,1276
2016-11-19T07:40:46.737Z,944
2016-11-19T07:41:46.742Z,1024
2016-11-19T07:42:53.789Z,1244
2016-11-19T07:43:46.739Z,1492
2016-11-19T07:44:46.746Z,1656
2016-11-19T07:45:46.702Z,1704
2016-11-19T07:46:46.753Z,1784
2016-11-19T07:47:46.758Z,1748
2016-11-19T07:48:46.710Z,1660
2016-11-19T07:49:46.723Z,1716
2016-11-19T07:50:46.795Z,1832
2016-11-19T07:51:46.982Z,1740
2016-11-19T07:52:46.846Z,1804
2016-11-19T07:53:46.742Z,1932
2016-11-19T07:54:46.720Z,1728
2016-11-19T07:55:46.715Z,1612
2016-11-19T07:56:46.705Z,1780
2016-11-19T07:57:46.744Z,1548
2016-11-19T07:58:46.701Z,1424
2016-11-19T07:59:46.869Z,1076
2016-11-19T08:00:46.826Z,948
2016-11-19T08:01:46.708Z,1088
2016-11-19T08:02:46.775Z,1344
2016-11-19T08:03:46.705Z,1420
2016-11-19T08:04:46.815Z,1420
2016-11-19T08:05:46.743Z,1652
2016-11-19T08:06:46.740Z,1632
2016-11-19T08:07:46.793Z,1780
2016-11-19T08:08:46.734Z,2040
2016-11-19T08:09:46.933Z,1728
2016-11-19T08:10:46.769Z,1820
2016-11-19T08:11:46.936Z,2080
2016-11-19T08:12:46.827Z,2412
2016-11-19T08:13:47.035Z,2180
2016-11-19T08:14:46.729Z,2040
2016-11-19T08:15:46.808Z,2540
2016-11-19T08:16:46.791Z,2656
2016-11-19T08:17:46.926Z,2756
2016-11-19T08:18:46.767Z,2416
2016-11-19T08:19:46.736Z,2688
2016-11-19T08:20:46.725Z,2440
2016-11-19T08:21:46.826Z,2456
2016-11-19T08:22:46.759Z,2892
2016-11-19T08:23:46.776Z,2968
2016-11-19T08:24:46.774Z,3256
2016-11-19T08:25:47.103Z,3696
2016-11-19T08:26:46.735Z,3004
2016-11-19T08:27:46.788Z,1988
2016-11-19T08:28:46.807Z,1808
2016-11-19T08:29:46.753Z,2064
2016-11-19T08:30:46.772Z,2112
2016-11-19T08:31:46.738Z,2096
2016-11-19T08:32:46.784Z,1764
2016-11-19T08:33:46.816Z,1664
2016-11-19T08:34:46.752Z,1460
2016-11-19T08:35:46.844Z,1332
2016-11-19T08:36:46.765Z,1456
2016-11-19T08:37:46.746Z,1140
2016-11-19T08:38:46.746Z,1180
2016-11-19T08:39:46.770Z,964
2016-11-19T08:40:46.767Z,824
2016-11-19T08:41:46.767Z,952
2016-11-19T08:42:46.772Z,872
2016-11-19T08:43:46.804Z,848
2016-11-19T08:44:46.761Z,916
2016-11-19T08:45:46.786Z,792
2016-11-19T08:46:46.732Z,692
2016-11-19T08:47:46.765Z,600
2016-11-19T08:48:46.799Z,656
2016-11-19T08:49:46.794Z,740
2016-11-19T08:50:46.773Z,768
2016-11-19T08:51:46.741Z,1132
2016-11-19T08:52:46.777Z,1092
2016-11-19T08:53:46.807Z,992
2016-11-19T08:54:46.751Z,948
2016-11-19T08:55:46.763Z,720
2016-11-19T08:56:46.756Z,724
2016-11-19T08:57:46.767Z,1044
2016-11-19T08:58:50.067Z,1056
2016-11-19T08:59:50.454Z,1220
2016-11-19T09:00:46.781Z,1380
2016-11-19T09:01:46.847Z,1124
2016-11-19T09:02:46.769Z,852
2016-11-19T09:03:46.781Z,1416
2016-11-19T09:04:46.780Z,1460
2016-11-19T09:05:46.778Z,1572
2016-11-19T09:06:46.771Z,1440
2016-11-19T09:07:46.822Z,1176
2016-11-19T09:08:46.830Z,808
2016-11-19T09:09:47.014Z,1204
2016-11-19T09:10:46.781Z,1360
2016-11-19T09:11:46.778Z,1176
2016-11-19T09:12:46.761Z,1128
2016-11-19T09:13:46.809Z,1600
2016-11-19T09:14:46.758Z,1864
2016-11-19T09:15:46.784Z,1860
2016-11-19T09:16:46.800Z,1708
2016-11-19T09:17:46.784Z,1348
2016-11-19T09:18:47.176Z,1620
2016-11-19T09:19:46.829Z,2044
2016-11-19T09:20:57.044Z,1952
2016-11-19T09:21:54.712Z,2156
2016-11-19T09:22:56.040Z,2716
2016-11-19T09:23:54.907Z,2396
2016-11-19T09:24:54.538Z,2064
2016-11-19T09:25:56.263Z,2136
2016-11-19T09:26:56.158Z,2560
2016-11-19T09:27:56.757Z,2348
2016-11-19T09:28:55.774Z,1844
2016-11-19T09:29:55.518Z,1924
2016-11-19T09:30:56.411Z,2040
2016-11-19T09:31:57.680Z,1848
2016-11-19T09:32:57.382Z,2000
2016-11-19T09:33:56.539Z,2420
2016-11-19T09:34:56.238Z,2460
2016-11-19T09:35:56.056Z,3040
2016-11-19T09:36:57.041Z,3360
2016-11-19T09:37:57.390Z,3792
2016-11-19T09:38:57.536Z,4240
2016-11-19T09:39:57.662Z,4664
2016-11-19T09:40:54.096Z,4932
2016-11-19T09:41:55.772Z,5020
2016-11-19T09:42:55.716Z,4744
2016-11-19T09:43:57.665Z,4572
2016-11-19T09:44:55.117Z,4816
2016-11-19T09:45:56.892Z,4756
2016-11-19T09:46:55.939Z,4104
2016-11-19T09:47:47.173Z,3408
2016-11-19T09:48:46.873Z,2720
2016-11-19T09:49:46.846Z,2884
2016-11-19T09:50:46.820Z,3192
2016-11-19T09:51:46.824Z,3328
2016-11-19T09:52:46.818Z,2900
2016-11-19T09:53:46.813Z,2884
2016-11-19T09:54:46.785Z,3104
2016-11-19T09:55:46.832Z,3468
2016-11-19T09:56:46.795Z,3992
2016-11-19T09:57:46.801Z,4156
2016-11-19T09:58:47.471Z,2948
2016-11-19T09:59:46.814Z,1628
2016-11-19T10:00:46.869Z,1168
2016-11-19T10:01:46.830Z,1112
2016-11-19T10:02:46.847Z,1132
2016-11-19T10:03:46.838Z,1056
2016-11-19T10:04:46.839Z,1084
2016-11-19T10:05:46.786Z,1020
2016-11-19T10:06:46.897Z,1696
2016-11-19T10:07:47.711Z,2004
2016-11-19T10:08:47.339Z,2576
2016-11-19T10:09:46.816Z,2512
2016-11-19T10:10:47.842Z,2584
2016-11-19T10:11:46.827Z,2356
2016-11-19T10:12:47.301Z,2500
2016-11-19T10:13:47.450Z,2904
2016-11-19T10:14:46.846Z,2844
2016-11-19T10:15:46.853Z,2608
2016-11-19T10:16:46.848Z,3092
2016-11-19T10:17:46.868Z,2852
2016-11-19T10:18:48.826Z,2164
2016-11-19T10:19:47.339Z,2524
2016-11-19T10:20:46.852Z,3460
2016-11-19T10:21:47.552Z,3684
2016-11-19T10:22:47.534Z,3496
2016-11-19T10:23:46.854Z,4064
2016-11-19T10:24:46.840Z,2792
2016-11-19T10:25:47.845Z,1732
2016-11-19T10:26:46.829Z,1828
2016-11-19T10:27:46.824Z,1896
2016-11-19T10:28:48.099Z,1516
2016-11-19T10:29:46.857Z,1264
2016-11-19T10:30:46.894Z,1152
2016-11-19T10:31:46.840Z,996
2016-11-19T10:32:46.874Z,892
2016-11-19T10:33:46.934Z,948
2016-11-19T10:34:47.283Z,1132
2016-11-19T10:35:46.878Z,712
2016-11-19T10:36:46.854Z,508
2016-11-19T10:37:46.874Z,652
2016-11-19T10:38:46.870Z,864
2016-11-19T10:39:46.875Z,1732
2016-11-19T10:40:47.239Z,2160
2016-11-19T10:41:47.504Z,2052
2016-11-19T10:42:46.873Z,2060
2016-11-19T10:43:47.059Z,2024
2016-11-19T10:44:47.447Z,1760
2016-11-19T10:45:46.860Z,2124
2016-11-19T10:46:46.899Z,1604
2016-11-19T10:47:46.914Z,1684
2016-11-19T10:48:46.880Z,1880
2016-11-19T10:49:48.281Z,1776
2016-11-19T10:50:47.784Z,1892
2016-11-19T10:51:46.905Z,2136
2016-11-19T10:52:46.877Z,1820
2016-11-19T10:53:46.923Z,1464
2016-11-19T10:54:46.911Z,1600
2016-11-19T10:55:46.917Z,1184
2016-11-19T10:56:46.973Z,1224
2016-11-19T10:57:46.910Z,2104
2016-11-19T10:58:46.917Z,3036
2016-11-19T10:59:46.888Z,2784
2016-11-19T11:00:47.358Z,2780
2016-11-19T11:01:46.933Z,2572
2016-11-19T11:02:47.044Z,4316
2016-11-19T11:03:46.889Z,4096
2016-11-19T11:04:46.926Z,4008
2016-11-19T11:05:47.017Z,4900
2016-11-19T11:06:46.892Z,5656
2016-11-19T11:07:46.911Z,4816
2016-11-19T11:08:46.921Z,3896
2016-11-19T11:09:46.934Z,3444
2016-11-19T11:10:46.897Z,3400
2016-11-19T11:11:46.933Z,3296
2016-11-19T11:12:46.899Z,3528
2016-11-19T11:13:46.986Z,3308
2016-11-19T11:14:46.944Z,3152
2016-11-19T11:15:47.118Z,4176
2016-11-19T11:16:46.996Z,5308
2016-11-19T11:17:46.957Z,5788
2016-11-19T11:18:46.987Z,4808
2016-11-19T11:19:46.913Z,5084
2016-11-19T11:20:46.909Z,5268
2016-11-19T11:21:46.905Z,4480
2016-11-19T11:22:46.994Z,4512
2016-11-19T11:23:46.905Z,3452
2016-11-19T11:24:46.935Z,3156
2016-11-19T11:25:47.597Z,3008
2016-11-19T11:26:46.894Z,2596
2016-11-19T11:27:47.459Z,2384
2016-11-19T11:28:46.926Z,2116
2016-11-19T11:29:46.973Z,1912
2016-11-19T11:30:47.008Z,1916
2016-11-19T11:31:47.511Z,1948
2016-11-19T11:32:47.391Z,1948
2016-11-19T11:33:47.083Z,2300
2016-11-19T11:34:46.950Z,2612
2016-11-19T11:35:46.959Z,2824
2016-11-19T11:36:47.359Z,2456
2016-11-19T11:37:46.954Z,2336
2016-11-19T11:38:46.892Z,2424
2016-11-19T11:39:46.901Z,2764
2016-11-19T11:40:46.937Z,4132
2016-11-19T11:41:46.917Z,4148
2016-11-19T11:42:47.564Z,3916
2016-11-19T11:43:46.904Z,3628
2016-11-19T11:44:47.488Z,3496
2016-11-19T11:45:46.995Z,3548
2016-11-19T11:46:46.884Z,3848
2016-11-19T11:47:47.218Z,4352
2016-11-19T11:48:47.898Z,4772
2016-11-19T11:49:47.858Z,5432
2016-11-19T11:50:46.907Z,5580
2016-11-19T11:51:47.065Z,6080
2016-11-19T11:52:47.218Z,6320
2016-11-19T11:53:47.488Z,6388
2016-11-19T11:54:46.910Z,5900
2016-11-19T11:55:46.873Z,5288
2016-11-19T11:56:47.032Z,5256
2016-11-19T11:57:46.975Z,5496
2016-11-19T11:58:46.945Z,5560
2016-11-19T11:59:47.016Z,5868
2016-11-19T12:00:46.959Z,6020
2016-11-19T12:01:47.151Z,5724
2016-11-19T12:02:46.923Z,5652
2016-11-19T12:03:46.984Z,4784
2016-11-19T12:04:46.892Z,4808
2016-11-19T12:05:46.899Z,4904
2016-11-19T12:06:47.359Z,4696
2016-11-19T12:07:46.930Z,4828
2016-11-19T12:08:46.922Z,4728
2016-11-19T12:09:46.915Z,4796
2016-11-19T12:10:46.917Z,4500
2016-11-19T12:11:47.514Z,3900
2016-11-19T12:12:46.968Z,3804
2016-11-19T12:13:47.609Z,3880
2016-11-19T12:14:47.096Z,3512
2016-11-19T12:15:47.210Z,3064
2016-11-19T12:16:47.187Z,3304
2016-11-19T12:18:00.847Z,3600
2016-11-19T12:18:47.358Z,3792
2016-11-19T12:19:47.055Z,3824
2016-11-19T12:20:46.914Z,3656
2016-11-19T12:21:47.065Z,3608
2016-11-19T12:22:47.248Z,3648
2016-11-19T12:23:47.005Z,3384
2016-11-19T12:24:46.900Z,3416
2016-11-19T12:25:47.042Z,3516
2016-11-19T12:26:47.625Z,3640
2016-11-19T12:27:48.047Z,4188
2016-11-19T12:28:47.114Z,4812
2016-11-19T12:29:46.935Z,4780
2016-11-19T12:30:47.160Z,4576
2016-11-19T12:31:46.965Z,4444
2016-11-19T12:32:46.947Z,4164
2016-11-19T12:33:47.433Z,4068
2016-11-19T12:34:46.923Z,4872
2016-11-19T12:35:46.948Z,3844
2016-11-19T12:36:47.017Z,3616
2016-11-19T12:37:47.093Z,3660
2016-11-19T12:38:47.053Z,3780
2016-11-19T12:39:46.968Z,4012
2016-11-19T12:40:46.945Z,3948
2016-11-19T12:41:47.271Z,3408
2016-11-19T12:42:47.560Z,3048
2016-11-19T12:43:47.101Z,2932
2016-11-19T12:44:48.655Z,3300
2016-11-19T12:45:47.074Z,4160
2016-11-19T12:46:47.035Z,4628
2016-11-19T12:47:47.263Z,5160
2016-11-19T12:48:47.047Z,4696
2016-11-19T12:49:50.712Z,5024
2016-11-19T12:50:46.930Z,4972
2016-11-19T12:51:47.080Z,4684
2016-11-19T12:52:46.926Z,4784
2016-11-19T12:53:47.065Z,5276
2016-11-19T12:54:46.936Z,4512
2016-11-19T12:55:46.959Z,4308
2016-11-19T12:56:47.609Z,4140
2016-11-19T12:57:46.929Z,3496
2016-11-19T12:58:46.942Z,3284
2016-11-19T12:59:47.173Z,2944
2016-11-19T13:00:46.939Z,2888
2016-11-19T13:01:46.913Z,3044
2016-11-19T13:02:47.591Z,2856
2016-11-19T13:03:46.973Z,2772
2016-11-19T13:04:46.933Z,3044
2016-11-19T13:05:47.440Z,2948
2016-11-19T13:06:46.917Z,3044
2016-11-19T13:07:47.027Z,3104
2016-11-19T13:08:46.948Z,2860
2016-11-19T13:09:46.968Z,2684
2016-11-19T13:10:46.930Z,2776
2016-11-19T13:11:46.933Z,2744
2016-11-19T13:12:46.943Z,2740
2016-11-19T13:13:46.949Z,2756
2016-11-19T13:14:46.928Z,2760
2016-11-19T13:15:47.581Z,2760
2016-11-19T13:16:47.430Z,2748
2016-11-19T13:17:47.991Z,2728
2016-11-19T13:18:46.997Z,2800
2016-11-19T13:19:46.992Z,3000
2016-11-19T13:20:46.963Z,3624
2016-11-19T13:21:47.030Z,2916
2016-11-19T13:22:47.018Z,2756
2016-11-19T13:23:47.006Z,2888
2016-11-19T13:24:46.976Z,3200
2016-11-19T13:25:47.015Z,2832
2016-11-19T13:26:47.006Z,2860
2016-11-19T13:27:46.938Z,2800
2016-11-19T13:28:46.981Z,3572
2016-11-19T13:29:46.946Z,3404
2016-11-19T13:30:47.067Z,3848
2016-11-19T13:31:47.050Z,3092
2016-11-19T13:32:47.038Z,2812
2016-11-19T13:33:46.974Z,2944
2016-11-19T13:34:47.011Z,3032
2016-11-19T13:35:46.996Z,3440
2016-11-19T13:36:46.939Z,4332
2016-11-19T13:37:47.131Z,3696
2016-11-19T13:38:47.014Z,3376
2016-11-19T13:39:47.390Z,3648
2016-11-19T13:40:47.291Z,3600
2016-11-19T13:41:46.997Z,3276
2016-11-19T13:42:47.573Z,4264
2016-11-19T13:43:47.098Z,3760
2016-11-19T13:44:47.018Z,4260
2016-11-19T13:45:47.007Z,3500
2016-11-19T13:46:47.015Z,3492
2016-11-19T13:47:47.058Z,3992
2016-11-19T13:48:46.978Z,4588
2016-11-19T13:49:47.005Z,4064
2016-11-19T13:50:47.017Z,3424
2016-11-19T13:51:46.964Z,3824
2016-11-19T13:52:46.985Z,4548
2016-11-19T13:53:46.996Z,3720
2016-11-19T13:54:47.077Z,3208
2016-11-19T13:55:47.051Z,3428
2016-11-19T13:56:47.014Z,3948
2016-11-19T13:57:47.762Z,4216
2016-11-19T13:58:46.989Z,3404
2016-11-19T13:59:46.988Z,3492
2016-11-19T14:00:47.044Z,3856
2016-11-19T14:01:47.006Z,2960